Terminal Aerodrome Forecast
Issued by NWS Jacksonville, FL

Home | Current Version | Previous Version | Text Only | Print | Product List | Glossary On
Versions: 1 2 3 4 5 6 7 8 9 10 11 12 13 14 15
000
FTUS42 KJAX 312347
TAFSSI
TAF
KSSI 312347Z 0100/0124 06007KT P6SM BKN250
     FM010200 07004KT P6SM BKN250
     FM011400 12008KT P6SM BKN250
     FM011700 15011G17KT P6SM SCT040 BKN250=

USA.gov is the U.S. government's official web portal to all federal, state and local government web resources and services.